createdAt,value
2023-01-03T00:01:28.816Z,3.22
2023-01-03T00:03:57.195Z,2.33
2023-01-03T00:06:26.391Z,2.58
2023-01-03T00:08:55.647Z,2.40
2023-01-03T00:11:47.069Z,2.88
2023-01-03T00:14:17.448Z,2.47
2023-01-03T00:16:44.405Z,2.45
2023-01-03T00:19:13.878Z,2.70
2023-01-03T00:21:42.404Z,3.03
2023-01-03T00:24:10.079Z,2.30
2023-01-03T00:26:37.836Z,3.67
2023-01-03T00:29:04.873Z,2.92
2023-01-03T00:31:31.691Z,3.00
2023-01-03T00:33:58.869Z,3.10
2023-01-03T00:36:25.826Z,2.80
2023-01-03T00:38:52.570Z,3.40
2023-01-03T00:41:20.505Z,3.80
2023-01-03T00:43:49.136Z,3.42
2023-01-03T00:46:18.165Z,3.00
2023-01-03T00:48:45.195Z,3.17
2023-01-03T00:51:19.497Z,3.50
2023-01-03T00:53:48.240Z,3.70
2023-01-03T00:56:18.623Z,3.80
2023-01-03T00:58:46.315Z,2.83
2023-01-03T01:01:16.761Z,3.33
2023-01-03T01:03:46.632Z,3.58
2023-01-03T01:06:18.422Z,3.35
2023-01-03T01:08:46.543Z,2.87
2023-01-03T01:11:14.704Z,3.45
2023-01-03T01:13:42.899Z,4.03
2023-01-03T01:16:14.317Z,3.30
2023-01-03T01:18:42.714Z,3.70
2023-01-03T01:21:12.590Z,3.67
2023-01-03T01:23:40.856Z,3.50
2023-01-03T01:26:10.617Z,3.42
2023-01-03T01:28:37.624Z,3.72
2023-01-03T01:31:05.930Z,4.05
2023-01-03T01:33:35.121Z,3.38
2023-01-03T01:36:10.573Z,4.25
2023-01-03T01:38:37.323Z,4.22
2023-01-03T01:41:04.612Z,4.03
2023-01-03T01:43:49.824Z,4.45
2023-01-03T01:46:27.095Z,4.32
2023-01-03T01:49:01.424Z,4.30
2023-01-03T01:51:32.187Z,4.53
2023-01-03T01:54:01.164Z,4.10
2023-01-03T01:56:39.801Z,4.35
2023-01-03T01:59:08.952Z,4.30
2023-01-03T02:01:36.180Z,4.30
2023-01-03T02:04:07.097Z,3.95
2023-01-03T02:06:34.396Z,4.32
2023-01-03T02:09:01.381Z,3.90
2023-01-03T02:11:47.884Z,4.25
2023-01-03T02:14:23.624Z,4.13
2023-01-03T02:17:00.811Z,5.35
2023-01-03T02:19:49.164Z,4.85
2023-01-03T02:22:53.277Z,4.55
2023-01-03T02:26:09.509Z,5.28
2023-01-03T02:28:45.501Z,4.93
2023-01-03T02:31:30.931Z,4.65
2023-01-03T02:34:27.962Z,4.75
2023-01-03T02:36:57.676Z,5.55
2023-01-03T02:39:29.860Z,4.63
2023-01-03T02:42:27.836Z,5.05
2023-01-03T02:45:09.699Z,5.85
2023-01-03T02:47:50.044Z,5.43
2023-01-03T02:50:17.940Z,5.57
2023-01-03T02:52:49.562Z,5.55
2023-01-03T02:55:24.310Z,5.10
2023-01-03T02:58:02.774Z,5.70
2023-01-03T03:00:33.141Z,5.53
2023-01-03T03:03:09.746Z,6.03
2023-01-03T03:06:07.879Z,5.32
2023-01-03T03:08:35.621Z,5.60
2023-01-03T03:11:20.839Z,5.50
2023-01-03T03:13:54.798Z,5.22
2023-01-03T03:16:43.218Z,4.97
2023-01-03T03:19:49.734Z,5.53
2023-01-03T03:23:02.949Z,5.00
2023-01-03T03:25:47.979Z,5.57
2023-01-03T03:28:37.575Z,5.43
2023-01-03T03:31:15.185Z,5.30
2023-01-03T03:34:14.827Z,5.65
2023-01-03T03:36:54.836Z,5.55
2023-01-03T03:39:41.698Z,5.43
2023-01-03T03:42:47.169Z,5.57
2023-01-03T03:45:32.223Z,5.90
2023-01-03T03:48:09.319Z,6.45
2023-01-03T03:50:48.205Z,5.47
2023-01-03T03:53:16.189Z,5.30
2023-01-03T03:55:56.027Z,5.57
2023-01-03T03:58:51.364Z,6.00
2023-01-03T04:01:22.515Z,5.30
2023-01-03T04:03:52.141Z,6.05
2023-01-03T04:06:31.719Z,5.28
2023-01-03T04:08:59.020Z,5.07
2023-01-03T04:11:25.841Z,5.25
2023-01-03T04:13:52.583Z,5.22
2023-01-03T04:16:19.430Z,5.55
2023-01-03T04:18:46.236Z,5.32
2023-01-03T04:21:18.877Z,4.88
2023-01-03T04:23:47.665Z,5.13
2023-01-03T04:26:14.548Z,5.75
2023-01-03T04:28:41.394Z,5.28
2023-01-03T04:31:08.443Z,5.63
2023-01-03T04:33:35.276Z,5.63
2023-01-03T04:36:02.232Z,6.53
2023-01-03T04:38:29.053Z,7.30
2023-01-03T04:40:55.802Z,5.97
2023-01-03T04:43:40.876Z,6.10
2023-01-03T04:46:07.794Z,6.50
2023-01-03T04:48:34.614Z,6.45
2023-01-03T04:51:01.368Z,6.45
2023-01-03T04:53:28.227Z,6.93
2023-01-03T04:55:57.076Z,6.85
2023-01-03T04:58:24.284Z,6.93
2023-01-03T05:00:51.866Z,6.53
2023-01-03T05:03:24.034Z,6.47
2023-01-03T05:06:01.130Z,6.72
2023-01-03T05:08:28.105Z,6.43
2023-01-03T05:10:55.021Z,5.22
2023-01-03T05:13:21.823Z,5.82
2023-01-03T05:15:48.946Z,5.78
2023-01-03T05:18:15.908Z,5.38
2023-01-03T05:21:01.088Z,5.30
2023-01-03T05:23:46.583Z,5.75
2023-01-03T05:26:16.249Z,4.82
2023-01-03T05:28:46.806Z,5.13
2023-01-03T05:31:14.068Z,5.13
2023-01-03T05:33:41.459Z,4.85
2023-01-03T05:36:09.342Z,5.15
2023-01-03T05:38:37.196Z,5.75
2023-01-03T05:41:04.763Z,5.25
2023-01-03T05:43:31.712Z,5.15
2023-01-03T05:45:58.588Z,6.63
2023-01-03T05:48:25.462Z,6.72
2023-01-03T05:50:52.438Z,6.32
2023-01-03T05:53:19.303Z,5.95
2023-01-03T05:55:46.097Z,6.50
2023-01-03T05:58:13.190Z,6.65
2023-01-03T06:00:40.299Z,6.45
2023-01-03T06:03:07.501Z,7.90
2023-01-03T06:05:34.416Z,6.45
2023-01-03T06:08:02.403Z,6.03
2023-01-03T06:10:29.828Z,5.90
2023-01-03T06:12:57.341Z,5.65
2023-01-03T06:15:24.155Z,4.70
2023-01-03T06:18:02.600Z,4.60
2023-01-03T06:20:30.407Z,3.92
2023-01-03T06:22:57.428Z,5.15
2023-01-03T06:25:24.892Z,4.80
2023-01-03T06:27:51.726Z,4.50
2023-01-03T06:30:18.614Z,4.88
2023-01-03T06:32:45.697Z,5.10
2023-01-03T06:35:12.516Z,6.25
2023-01-03T06:37:39.597Z,5.10
2023-01-03T06:40:07.207Z,4.97
2023-01-03T06:42:42.321Z,5.30
2023-01-03T06:45:29.359Z,4.43
2023-01-03T06:48:15.029Z,5.22
2023-01-03T06:51:01.591Z,7.40
2023-01-03T06:53:36.158Z,9.07
2023-01-03T06:56:03.566Z,9.93
2023-01-03T06:58:30.605Z,8.13
2023-01-03T07:00:59.426Z,6.80
2023-01-03T07:03:26.258Z,7.05
2023-01-03T07:05:53.224Z,7.22
2023-01-03T07:08:20.401Z,6.22
2023-01-03T07:10:47.462Z,5.38
2023-01-03T07:13:33.265Z,9.35
2023-01-03T07:16:00.223Z,6.30
2023-01-03T07:18:27.338Z,6.75
2023-01-03T07:20:54.469Z,6.95
2023-01-03T07:23:21.524Z,6.65
2023-01-03T07:25:48.526Z,7.55
2023-01-03T07:28:16.211Z,6.97
2023-01-03T07:30:45.149Z,7.20
2023-01-03T07:33:14.218Z,7.05
2023-01-03T07:35:41.575Z,7.50
2023-01-03T07:38:09.405Z,7.82
2023-01-03T07:40:36.196Z,7.72
2023-01-03T07:43:22.103Z,8.73
2023-01-03T07:45:49.402Z,9.57
2023-01-03T07:48:16.247Z,8.23
2023-01-03T07:50:43.060Z,9.05
2023-01-03T07:53:16.586Z,8.18
2023-01-03T07:55:45.356Z,8.63
2023-01-03T07:58:12.725Z,8.52
2023-01-03T08:00:40.715Z,8.35
2023-01-03T08:03:11.073Z,8.93
2023-01-03T08:05:38.376Z,8.70
2023-01-03T08:08:05.930Z,9.20
2023-01-03T08:10:51.256Z,8.65
2023-01-03T08:13:18.283Z,12.13
2023-01-03T08:15:46.305Z,10.73
2023-01-03T08:18:14.212Z,10.63
2023-01-03T08:20:41.621Z,11.75
2023-01-03T08:23:08.545Z,11.68
2023-01-03T08:25:35.339Z,10.85
2023-01-03T08:28:02.482Z,11.32
2023-01-03T08:30:29.974Z,12.18
2023-01-03T08:32:58.953Z,13.15
2023-01-03T08:35:29.321Z,13.45
2023-01-03T08:37:56.198Z,14.15
2023-01-03T08:40:23.174Z,13.80
2023-01-03T08:42:50.032Z,14.05
2023-01-03T08:45:18.760Z,13.07
2023-01-03T08:47:46.812Z,13.85
2023-01-03T08:50:14.214Z,13.20
2023-01-03T08:52:41.153Z,13.75
2023-01-03T08:55:08.390Z,13.98
2023-01-03T08:57:35.270Z,13.48
2023-01-03T09:00:02.263Z,13.77
2023-01-03T09:02:29.293Z,12.75
2023-01-03T09:04:56.312Z,12.75
2023-01-03T09:07:23.082Z,13.95
2023-01-03T09:09:49.850Z,17.27
2023-01-03T09:12:16.602Z,16.45
2023-01-03T09:14:43.315Z,17.33
2023-01-03T09:17:10.072Z,17.60
2023-01-03T09:19:37.071Z,16.98
2023-01-03T09:22:04.093Z,15.15
2023-01-03T09:24:30.928Z,15.93
2023-01-03T09:26:57.640Z,14.73
2023-01-03T09:29:24.443Z,16.02
2023-01-03T09:31:51.803Z,15.70
2023-01-03T09:34:19.109Z,15.02
2023-01-03T09:36:45.889Z,15.80
2023-01-03T09:39:14.404Z,15.18
2023-01-03T09:41:41.691Z,15.90
2023-01-03T09:44:09.362Z,16.83
2023-01-03T09:46:37.360Z,16.70
2023-01-03T09:49:07.029Z,17.38
2023-01-03T09:51:58.882Z,15.80
2023-01-03T09:54:57.677Z,16.67
2023-01-03T09:57:53.870Z,18.45
2023-01-03T10:00:48.316Z,18.42
2023-01-03T10:03:50.861Z,18.88
2023-01-03T10:06:37.253Z,18.40
2023-01-03T10:09:32.757Z,18.75
2023-01-03T10:12:05.395Z,19.50
2023-01-03T10:14:57.300Z,19.25
2023-01-03T10:17:50.131Z,20.02
2023-01-03T10:20:37.156Z,19.40
2023-01-03T10:23:07.815Z,18.67
2023-01-03T10:25:37.723Z,18.85
2023-01-03T10:28:38.688Z,19.90
2023-01-03T10:31:15.453Z,18.48
2023-01-03T10:33:45.599Z,19.50
2023-01-03T10:36:13.626Z,20.85
2023-01-03T10:38:47.843Z,19.55
2023-01-03T10:41:43.482Z,19.10
2023-01-03T10:44:24.665Z,19.15
2023-01-03T10:46:54.626Z,19.88
2023-01-03T10:49:28.826Z,19.92
2023-01-03T10:52:02.702Z,19.02
2023-01-03T10:54:48.068Z,19.40
2023-01-03T10:57:39.525Z,19.10
2023-01-03T11:00:27.861Z,18.83
2023-01-03T11:02:56.926Z,18.27
2023-01-03T11:05:26.529Z,18.27
2023-01-03T11:07:57.905Z,17.60
2023-01-03T11:10:31.508Z,17.33
2023-01-03T11:12:58.932Z,17.83
2023-01-03T11:15:39.195Z,18.38
2023-01-03T11:18:17.475Z,18.20
2023-01-03T11:20:59.287Z,16.77
2023-01-03T11:23:31.884Z,18.35
2023-01-03T11:25:58.592Z,16.55
2023-01-03T11:28:53.678Z,18.05
2023-01-03T11:31:35.727Z,15.82
2023-01-03T11:34:24.510Z,16.38
2023-01-03T11:37:01.637Z,15.50
2023-01-03T11:39:48.040Z,14.95
2023-01-03T11:43:03.707Z,15.82
2023-01-03T11:45:46.388Z,14.68
2023-01-03T11:48:47.106Z,13.88
2023-01-03T11:51:25.779Z,13.05
2023-01-03T11:54:41.957Z,12.88
2023-01-03T11:57:36.059Z,12.93
2023-01-03T12:00:08.966Z,11.93
2023-01-03T12:03:12.534Z,11.38
2023-01-03T12:05:42.788Z,10.73
2023-01-03T12:08:12.532Z,10.48
2023-01-03T12:10:47.814Z,10.80
2023-01-03T12:13:26.901Z,10.98
2023-01-03T12:16:03.251Z,10.20
2023-01-03T12:18:43.046Z,10.52
2023-01-03T12:21:23.730Z,10.50
2023-01-03T12:24:11.419Z,10.57
2023-01-03T12:26:42.171Z,9.20
2023-01-03T12:29:23.673Z,8.95
2023-01-03T12:32:05.957Z,8.88
2023-01-03T12:34:50.265Z,8.18
2023-01-03T12:37:24.464Z,8.95
2023-01-03T12:40:01.826Z,9.50
2023-01-03T12:42:49.926Z,9.40
2023-01-03T12:45:34.657Z,8.65
2023-01-03T12:48:09.373Z,8.00
2023-01-03T12:50:50.140Z,8.60
2023-01-03T12:53:42.101Z,7.93
2023-01-03T12:56:41.708Z,7.85
2023-01-03T12:59:51.808Z,7.70
2023-01-03T13:02:39.822Z,8.10
2023-01-03T13:05:19.977Z,7.70
2023-01-03T13:07:58.473Z,7.75
2023-01-03T13:10:30.731Z,7.72
2023-01-03T13:13:00.168Z,7.97
2023-01-03T13:15:36.251Z,7.05
2023-01-03T13:18:22.979Z,8.02
2023-01-03T13:20:54.235Z,7.07
2023-01-03T13:23:32.692Z,7.55
2023-01-03T13:26:05.664Z,7.30
2023-01-03T13:28:40.087Z,7.75
2023-01-03T13:31:19.045Z,8.65
2023-01-03T13:33:48.995Z,7.75
2023-01-03T13:36:18.607Z,7.75
2023-01-03T13:38:46.192Z,7.63
2023-01-03T13:41:35.164Z,8.27
2023-01-03T13:44:16.809Z,8.23
2023-01-03T13:46:43.947Z,9.40
2023-01-03T13:49:22.332Z,8.70
2023-01-03T13:51:57.676Z,9.18
2023-01-03T13:54:25.019Z,8.70
2023-01-03T13:56:54.797Z,8.30
2023-01-03T13:59:47.503Z,8.95
2023-01-03T14:02:47.424Z,8.75
2023-01-03T14:05:55.376Z,9.35
2023-01-03T14:08:42.301Z,9.00
2023-01-03T14:11:11.876Z,9.15
2023-01-03T14:13:48.678Z,8.98
2023-01-03T14:16:28.719Z,8.32
2023-01-03T14:19:04.830Z,8.80
2023-01-03T14:21:45.123Z,8.35
2023-01-03T14:24:24.634Z,7.38
2023-01-03T14:26:51.851Z,7.60
2023-01-03T14:29:23.176Z,7.60
2023-01-03T14:31:55.731Z,7.00
2023-01-03T14:34:35.877Z,6.80
2023-01-03T14:37:11.506Z,6.90
2023-01-03T14:42:06.889Z,7.43
2023-01-03T14:44:35.556Z,8.32
2023-01-03T14:47:06.553Z,10.00
2023-01-03T14:49:44.942Z,6.25
2023-01-03T14:52:26.648Z,6.45
2023-01-03T14:55:01.644Z,6.28
2023-01-03T14:57:31.059Z,8.63
2023-01-03T15:00:00.366Z,7.07
2023-01-03T15:02:30.805Z,8.18
2023-01-03T15:05:01.217Z,9.20
2023-01-03T15:07:43.284Z,9.68
2023-01-03T15:10:13.134Z,8.63
2023-01-03T15:12:45.178Z,8.85
2023-01-03T15:15:37.132Z,7.68
2023-01-03T15:18:09.396Z,7.00
2023-01-03T15:20:43.704Z,7.15
2023-01-03T15:23:46.336Z,6.93
2023-01-03T15:26:39.773Z,7.18
2023-01-03T15:29:28.524Z,6.65
2023-01-03T15:31:55.610Z,7.32
2023-01-03T15:34:34.727Z,7.40
2023-01-03T15:37:02.655Z,10.57
2023-01-03T15:39:42.175Z,10.90
2023-01-03T15:42:51.783Z,11.02
2023-01-03T15:45:30.546Z,10.90
2023-01-03T15:48:00.370Z,13.60
2023-01-03T15:50:57.618Z,14.65
2023-01-03T15:53:41.246Z,13.00
2023-01-03T15:56:30.331Z,11.20
2023-01-03T15:58:57.417Z,10.02
2023-01-03T16:01:25.653Z,9.20
2023-01-03T16:03:53.769Z,7.72
2023-01-03T16:06:20.670Z,7.38
2023-01-03T16:08:47.540Z,7.25
2023-01-03T16:11:20.442Z,7.07
2023-01-03T16:13:57.422Z,6.88
2023-01-03T16:16:40.411Z,6.97
2023-01-03T16:19:08.021Z,7.53
2023-01-03T16:21:35.025Z,7.10
2023-01-03T16:24:02.769Z,7.20
2023-01-03T16:26:29.616Z,7.25
2023-01-03T16:28:56.494Z,7.28
2023-01-03T16:31:29.787Z,7.03
2023-01-03T16:33:56.814Z,6.95
2023-01-03T16:36:38.097Z,6.38
2023-01-03T16:39:16.907Z,6.45
2023-01-03T16:42:05.121Z,6.63
2023-01-03T16:44:36.515Z,6.57
2023-01-03T16:47:07.214Z,7.05
2023-01-03T16:49:35.649Z,6.90
2023-01-03T16:52:03.529Z,6.32
2023-01-03T16:54:30.661Z,6.38
2023-01-03T16:56:57.466Z,6.55
2023-01-03T16:59:24.667Z,6.18
2023-01-03T17:01:51.576Z,6.45
2023-01-03T17:04:18.525Z,6.30
2023-01-03T17:06:45.446Z,7.40
2023-01-03T17:09:17.555Z,7.10
2023-01-03T17:11:45.026Z,8.48
2023-01-03T17:14:18.853Z,8.55
2023-01-03T17:16:46.353Z,9.65
2023-01-03T17:20:01.624Z,8.75
2023-01-03T17:22:16.662Z,9.80
2023-01-03T17:24:44.256Z,10.60
2023-01-03T17:27:22.826Z,10.13
2023-01-03T17:30:01.293Z,7.10
2023-01-03T17:32:28.549Z,4.47
2023-01-03T17:34:55.339Z,3.80
2023-01-03T17:37:23.112Z,3.42
2023-01-03T17:40:00.429Z,3.80
2023-01-03T17:42:29.217Z,4.10
2023-01-03T17:45:14.685Z,4.22
2023-01-03T17:48:01.895Z,5.10
2023-01-03T17:50:30.863Z,5.10
2023-01-03T17:52:58.735Z,5.25
2023-01-03T17:55:28.863Z,5.07
2023-01-03T17:57:56.712Z,7.15
2023-01-03T18:00:26.312Z,8.05
2023-01-03T18:02:54.574Z,10.18
2023-01-03T18:05:27.535Z,9.60
2023-01-03T18:08:00.184Z,10.85
2023-01-03T18:10:46.219Z,11.18
2023-01-03T18:13:26.089Z,12.20
2023-01-03T18:15:54.250Z,11.75
2023-01-03T18:18:23.195Z,12.80
2023-01-03T18:20:50.360Z,12.05
2023-01-03T18:23:24.989Z,12.48
2023-01-03T18:25:52.464Z,11.32
2023-01-03T18:28:23.651Z,11.52
2023-01-03T18:30:50.507Z,10.43
2023-01-03T18:33:17.327Z,10.02
2023-01-03T18:35:44.588Z,9.25
2023-01-03T18:38:41.362Z,14.30
2023-01-03T18:41:22.511Z,14.40
2023-01-03T18:43:49.293Z,7.30
2023-01-03T18:46:22.614Z,4.75
2023-01-03T18:48:49.384Z,5.00
2023-01-03T18:51:18.552Z,4.57
2023-01-03T18:53:48.425Z,4.60
2023-01-03T18:56:31.140Z,4.55
2023-01-03T19:01:29.481Z,4.85
2023-01-03T19:03:56.989Z,4.93
2023-01-03T19:06:30.534Z,3.92
2023-01-03T19:09:00.414Z,4.53
2023-01-03T19:11:30.808Z,4.15
2023-01-03T19:14:00.922Z,3.95
2023-01-03T19:16:30.612Z,3.45
2023-01-03T19:18:58.216Z,3.65
2023-01-03T19:21:30.230Z,3.55
2023-01-03T19:24:03.963Z,3.08
2023-01-03T19:26:36.339Z,3.50
2023-01-03T19:29:06.177Z,3.05
2023-01-03T19:31:40.610Z,3.47
2023-01-03T19:34:19.603Z,2.97
2023-01-03T19:36:47.495Z,3.00
2023-01-03T19:39:15.480Z,2.85
2023-01-03T19:42:15.617Z,3.53
2023-01-03T19:44:43.099Z,3.85
2023-01-03T19:47:13.816Z,3.58
2023-01-03T19:49:41.345Z,3.33
2023-01-03T19:52:08.289Z,3.13
2023-01-03T19:54:35.122Z,3.65
2023-01-03T19:57:02.138Z,3.58
2023-01-03T19:59:34.969Z,3.55
2023-01-03T20:02:25.282Z,3.50
2023-01-03T20:04:52.931Z,3.53
2023-01-03T20:07:19.977Z,3.13
2023-01-03T20:09:46.800Z,3.10
2023-01-03T20:12:17.245Z,3.00
2023-01-03T20:14:51.405Z,3.20
2023-01-03T20:17:21.895Z,2.97
2023-01-03T20:19:49.265Z,3.35
2023-01-03T20:22:52.991Z,2.90
2023-01-03T20:25:06.539Z,3.25
2023-01-03T20:27:33.324Z,3.53
2023-01-03T20:30:00.544Z,3.50
2023-01-03T20:32:27.410Z,2.88
2023-01-03T20:34:54.289Z,2.88
2023-01-03T20:37:22.201Z,2.90
2023-01-03T20:39:49.048Z,3.13
2023-01-03T20:42:22.977Z,2.72
2023-01-03T20:44:49.832Z,2.85
2023-01-03T20:47:23.654Z,3.22
2023-01-03T20:49:51.100Z,2.75
2023-01-03T20:52:18.261Z,3.78
2023-01-03T20:54:45.147Z,3.10
2023-01-03T20:57:16.908Z,3.55
2023-01-03T20:59:44.331Z,3.83
2023-01-03T21:02:11.570Z,4.50
2023-01-03T21:04:39.738Z,4.60
2023-01-03T21:07:11.512Z,4.63
2023-01-03T21:09:38.750Z,3.70
2023-01-03T21:12:05.687Z,3.22
2023-01-03T21:14:32.437Z,3.17
2023-01-03T21:16:59.319Z,3.45
2023-01-03T21:19:26.303Z,2.97
2023-01-03T21:21:54.776Z,3.75
2023-01-03T21:24:25.122Z,3.72
2023-01-03T21:26:52.219Z,3.40
2023-01-03T21:29:19.116Z,3.50
2023-01-03T21:31:46.370Z,3.58
2023-01-03T21:34:19.058Z,3.45
2023-01-03T21:36:46.370Z,3.42
2023-01-03T21:39:13.660Z,3.40
2023-01-03T21:41:59.253Z,3.60
2023-01-03T21:44:26.037Z,3.08
2023-01-03T21:46:53.095Z,3.10
2023-01-03T21:49:19.968Z,3.05
2023-01-03T21:51:46.812Z,3.45
2023-01-03T21:54:13.926Z,3.03
2023-01-03T21:56:49.557Z,3.55
2023-01-03T21:59:16.811Z,3.60
2023-01-03T22:02:06.334Z,3.70
2023-01-03T22:04:33.875Z,3.47
2023-01-03T22:07:01.576Z,3.75
2023-01-03T22:09:49.841Z,3.65
2023-01-03T22:12:17.840Z,3.47
2023-01-03T22:14:45.517Z,3.80
2023-01-03T22:17:12.524Z,4.18
2023-01-03T22:19:39.418Z,3.80
2023-01-03T22:22:06.313Z,3.80
2023-01-03T22:24:33.087Z,3.67
2023-01-03T22:26:59.958Z,3.85
2023-01-03T22:29:26.783Z,3.90
2023-01-03T22:31:53.652Z,3.53
2023-01-03T22:34:20.558Z,3.83
2023-01-03T22:36:47.349Z,4.05
2023-01-03T22:39:14.188Z,3.67
2023-01-03T22:41:41.020Z,3.85
2023-01-03T22:44:07.964Z,3.90
2023-01-03T22:46:34.748Z,3.45
2023-01-03T22:49:01.547Z,3.42
2023-01-03T22:51:28.421Z,3.55
2023-01-03T22:53:55.429Z,3.45
2023-01-03T22:56:22.231Z,3.88
2023-01-03T22:58:49.030Z,3.55
2023-01-03T23:01:18.665Z,3.78
2023-01-03T23:03:47.078Z,3.70
2023-01-03T23:06:17.405Z,3.65
2023-01-03T23:08:45.501Z,3.80
2023-01-03T23:11:34.532Z,3.83
2023-01-03T23:14:04.535Z,4.15
2023-01-03T23:16:32.331Z,3.78
2023-01-03T23:19:02.034Z,3.20
2023-01-03T23:21:28.920Z,3.47
2023-01-03T23:23:55.747Z,3.40
2023-01-03T23:26:22.844Z,3.45
2023-01-03T23:28:49.637Z,3.85
2023-01-03T23:31:16.490Z,3.67
2023-01-03T23:33:43.264Z,3.50
2023-01-03T23:36:13.154Z,3.63
2023-01-03T23:38:39.933Z,3.60
2023-01-03T23:41:09.371Z,3.95
2023-01-03T23:43:36.917Z,3.30
2023-01-03T23:46:04.688Z,4.63
2023-01-03T23:48:32.039Z,3.90
2023-01-03T23:51:06.949Z,3.38
2023-01-03T23:53:38.538Z,3.25
2023-01-03T23:56:11.726Z,3.40
2023-01-03T23:58:38.524Z,3.70
